Time;durP1;ratioP1;P1;durP2;ratioP2;P2;SDS_P1;SDS_P2;PMS_P1;PMS_P2;Temp;Humidity;BMP_temperature;BMP_pressure;BME280_temperature;BME280_humidity;BME280_pressure;Samples;Min_cycle;Max_cycle;Signal;HPM_P1;HPM_P2
2023/09/12 00:01:33;;;;;;;0.00;0.00;;;22.50;94.40;;;;;;5033468;28;20029;-78
2023/09/12 00:03:59;;;;;;;0.00;0.00;;;22.40;94.10;;;;;;5035513;28;20047;-77
2023/09/12 00:06:25;;;;;;;0.32;0.28;;;22.30;93.20;;;;;;5036225;28;20036;-78
2023/09/12 00:08:52;;;;;;;0.00;0.00;;;22.20;91.80;;;;;;5037642;28;20049;-76
2023/09/12 00:11:18;;;;;;;0.00;0.00;;;22.10;91.80;;;;;;5036407;28;20036;-79
2023/09/12 00:13:44;;;;;;;0.00;0.00;;;22.10;91.60;;;;;;5038509;28;20036;-77
2023/09/12 00:16:10;;;;;;;0.00;0.00;;;22.00;91.70;;;;;;5036353;28;20558;-79
2023/09/12 00:18:37;;;;;;;0.00;0.00;;;22.00;91.70;;;;;;5045258;28;20036;-81
2023/09/12 00:21:03;;;;;;;0.00;0.00;;;22.00;91.70;;;;;;5034351;28;20080;-76
2023/09/12 00:23:29;;;;;;;0.00;0.00;;;22.00;91.80;;;;;;5040879;28;20044;-77
2023/09/12 00:25:56;;;;;;;0.00;0.00;;;22.00;92.00;;;;;;5036891;28;20455;-77
2023/09/12 00:28:22;;;;;;;0.00;0.00;;;21.90;92.20;;;;;;5039577;28;20052;-79
2023/09/12 00:30:47;;;;;;;0.00;0.00;;;22.00;92.20;;;;;;5041150;28;20032;-76
2023/09/12 00:33:13;;;;;;;0.00;0.00;;;22.00;92.00;;;;;;5032753;28;20026;-75
2023/09/12 00:35:39;;;;;;;0.00;0.00;;;22.00;91.90;;;;;;5040179;28;20028;-75
2023/09/12 00:38:06;;;;;;;0.00;0.00;;;21.90;91.80;;;;;;5035895;28;20029;-80
2023/09/12 00:40:32;;;;;;;0.00;0.00;;;21.90;91.80;;;;;;5029283;28;20566;-78
2023/09/12 00:42:58;;;;;;;0.00;0.00;;;21.80;91.70;;;;;;5042910;28;20025;-78
2023/09/12 00:45:24;;;;;;;0.28;0.28;;;21.80;92.00;;;;;;5031900;28;20029;-75
2023/09/12 00:47:52;;;;;;;0.30;0.30;;;21.80;92.00;;;;;;5041819;28;20071;-76
2023/09/12 00:50:20;;;;;;;0.00;0.00;;;21.80;92.40;;;;;;5042663;28;20048;-76
2023/09/12 00:52:47;;;;;;;0.00;0.00;;;21.80;92.40;;;;;;5035622;28;20040;-77
2023/09/12 00:55:13;;;;;;;0.00;0.00;;;21.70;93.00;;;;;;5040974;28;20632;-77
2023/09/12 00:57:40;;;;;;;0.00;0.00;;;21.70;93.50;;;;;;5033787;28;20025;-77
2023/09/12 01:00:12;;;;;;;0.10;0.10;;;21.60;93.70;;;;;;5036889;28;20041;-76
2023/09/12 01:02:41;;;;;;;2.63;0.47;;;21.60;93.90;;;;;;5032927;28;20037;-76
2023/09/12 01:05:08;;;;;;;0.00;0.00;;;21.60;94.00;;;;;;5030747;28;20032;-76
2023/09/12 01:07:38;;;;;;;0.00;0.00;;;21.60;94.30;;;;;;5041119;28;20048;-77
2023/09/12 01:10:07;;;;;;;0.00;0.00;;;21.50;94.40;;;;;;5034577;28;20102;-79
2023/09/12 01:12:33;;;;;;;0.00;0.00;;;21.40;94.80;;;;;;5041771;28;20463;-75
2023/09/12 01:14:59;;;;;;;0.00;0.00;;;21.50;94.80;;;;;;5035385;28;20025;-78
2023/09/12 01:17:26;;;;;;;0.00;0.00;;;21.30;95.20;;;;;;5035244;28;20546;-78
2023/09/12 01:19:52;;;;;;;0.00;0.00;;;21.50;95.00;;;;;;5033168;28;20709;-78
2023/09/12 01:22:21;;;;;;;0.00;0.00;;;21.50;95.00;;;;;;5034461;28;20040;-77
2023/09/12 01:25:04;;;;;;;0.00;0.00;;;21.50;95.10;;;;;;5042781;28;20108;-79
2023/09/12 01:27:46;;;;;;;0.00;0.00;;;21.50;95.40;;;;;;5041818;28;20108;-77
2023/09/12 01:30:16;;;;;;;0.00;0.00;;;21.40;95.40;;;;;;5041390;28;20035;-77
2023/09/12 01:32:43;;;;;;;0.00;0.00;;;21.40;95.40;;;;;;5041823;28;20025;-78
2023/09/12 01:35:09;;;;;;;0.10;0.10;;;21.40;95.30;;;;;;5040831;28;20108;-77
2023/09/12 01:37:35;;;;;;;0.00;0.00;;;21.50;95.20;;;;;;5045561;28;20482;-81
2023/09/12 01:40:02;;;;;;;0.10;0.10;;;21.30;95.70;;;;;;5035858;28;20115;-76
2023/09/12 01:42:36;;;;;;;0.10;0.10;;;21.20;96.30;;;;;;5030254;28;20090;-76
2023/09/12 01:45:03;;;;;;;0.00;0.00;;;21.00;97.20;;;;;;5038697;28;20025;-77
2023/09/12 01:47:29;;;;;;;0.00;0.00;;;20.90;97.40;;;;;;5035714;28;20025;-76
2023/09/12 01:49:58;;;;;;;0.00;0.00;;;21.20;96.80;;;;;;5036347;28;20080;-77
2023/09/12 01:52:25;;;;;;;0.00;0.00;;;21.20;97.00;;;;;;5041608;28;20516;-76
2023/09/12 01:54:52;;;;;;;0.00;0.00;;;21.10;97.50;;;;;;5034892;28;20029;-78
2023/09/12 01:57:21;;;;;;;0.00;0.00;;;21.10;97.70;;;;;;5034685;28;20806;-77
2023/09/12 01:59:49;;;;;;;0.00;0.00;;;21.20;97.50;;;;;;5044413;28;20057;-78
2023/09/12 02:02:19;;;;;;;0.00;0.00;;;21.10;98.30;;;;;;5039609;28;20102;-77
2023/09/12 02:05:02;;;;;;;0.03;0.03;;;21.00;98.70;;;;;;5034585;28;20056;-76
2023/09/12 02:07:33;;;;;;;0.00;0.00;;;21.10;98.80;;;;;;5037756;28;20450;-77
2023/09/12 02:10:00;;;;;;;0.00;0.00;;;21.10;99.00;;;;;;5037465;28;20538;-75
2023/09/12 02:12:25;;;;;;;0.00;0.00;;;20.90;99.90;;;;;;5038934;28;20063;-80
2023/09/12 02:14:51;;;;;;;0.00;0.00;;;20.90;99.90;;;;;;5044813;28;20095;-79
2023/09/12 02:17:17;;;;;;;0.00;0.00;;;21.00;99.90;;;;;;5038288;28;20018;-79
2023/09/12 02:19:42;;;;;;;0.00;0.00;;;21.00;99.90;;;;;;5038482;28;20100;-77
2023/09/12 02:22:08;;;;;;;0.00;0.00;;;20.90;99.90;;;;;;5045507;28;20028;-76
2023/09/12 02:24:37;;;;;;;0.00;0.00;;;20.90;99.90;;;;;;5046194;28;20029;-77
2023/09/12 02:27:03;;;;;;;0.00;0.00;;;20.80;99.90;;;;;;5043449;28;20017;-76
2023/09/12 02:29:29;;;;;;;0.00;0.00;;;20.80;99.90;;;;;;5044239;28;20047;-78
2023/09/12 02:31:56;;;;;;;0.00;0.00;;;20.90;99.90;;;;;;5044632;28;20085;-75
2023/09/12 02:34:21;;;;;;;0.00;0.00;;;20.80;99.90;;;;;;5034351;28;20033;-78
2023/09/12 02:36:47;;;;;;;0.00;0.00;;;20.80;99.90;;;;;;5038443;28;20033;-79
2023/09/12 02:39:13;;;;;;;0.63;0.63;;;20.70;99.90;;;;;;5028606;28;20033;-77
2023/09/12 02:41:38;;;;;;;0.00;0.00;;;20.70;99.90;;;;;;5048610;28;20036;-77
2023/09/12 02:44:04;;;;;;;0.00;0.00;;;20.80;99.90;;;;;;5035532;28;20108;-78
2023/09/12 02:46:30;;;;;;;0.00;0.00;;;20.80;99.90;;;;;;5044776;28;20064;-76
2023/09/12 02:48:56;;;;;;;0.00;0.00;;;20.70;99.90;;;;;;5044208;28;20044;-81
2023/09/12 02:51:21;;;;;;;0.00;0.00;;;20.80;99.90;;;;;;5037871;28;20025;-79
2023/09/12 02:53:47;;;;;;;0.20;0.20;;;20.80;99.90;;;;;;5040984;28;20503;-79
2023/09/12 02:56:13;;;;;;;0.00;0.00;;;20.70;99.90;;;;;;5041406;28;20468;-81
2023/09/12 02:58:38;;;;;;;0.00;0.00;;;20.60;99.90;;;;;;5036460;28;20040;-77
2023/09/12 03:01:06;;;;;;;0.00;0.00;;;20.60;99.90;;;;;;5047797;28;20020;-78
2023/09/12 03:03:32;;;;;;;0.00;0.00;;;20.60;99.90;;;;;;5044181;28;20029;-78
2023/09/12 03:06:04;;;;;;;;;;;20.60;99.90;;;;;;5044631;28;20025;-82
2023/09/12 03:08:30;;;;;;;0.00;0.00;;;20.50;99.90;;;;;;5041193;28;19925;-83
2023/09/12 03:10:56;;;;;;;0.00;0.00;;;20.30;99.90;;;;;;5039467;28;20032;-78
2023/09/12 03:13:24;;;;;;;0.00;0.00;;;20.20;99.90;;;;;;5045135;28;20035;-79
2023/09/12 03:15:50;;;;;;;0.00;0.00;;;20.20;99.90;;;;;;5044173;28;20033;-78
2023/09/12 03:18:16;;;;;;;0.10;0.10;;;20.10;99.90;;;;;;5039003;28;20025;-78
2023/09/12 03:20:41;;;;;;;0.10;0.10;;;19.90;99.90;;;;;;5039026;28;20020;-79
2023/09/12 03:23:07;;;;;;;0.00;0.00;;;19.80;99.90;;;;;;5037790;28;20049;-78
2023/09/12 03:25:39;;;;;;;0.00;0.00;;;19.90;99.90;;;;;;5041323;28;20052;-78
2023/09/12 03:28:06;;;;;;;0.00;0.00;;;20.00;99.90;;;;;;5041532;28;20838;-78
2023/09/12 03:30:33;;;;;;;;;;;19.90;99.90;;;;;;5043453;28;20397;-78
2023/09/12 03:32:59;;;;;;;0.00;0.00;;;19.90;99.90;;;;;;5045187;28;19913;-80
2023/09/12 03:35:25;;;;;;;0.00;0.00;;;19.80;99.90;;;;;;5041979;28;20025;-79
2023/09/12 03:37:51;;;;;;;0.00;0.00;;;19.80;99.90;;;;;;5044120;28;20033;-75
2023/09/12 03:40:16;;;;;;;0.00;0.00;;;19.70;99.90;;;;;;5041289;28;20029;-79
2023/09/12 03:42:42;;;;;;;0.00;0.00;;;19.60;99.90;;;;;;5046769;28;20029;-79
2023/09/12 03:45:08;;;;;;;0.00;0.00;;;19.60;99.90;;;;;;5042960;28;20104;-81
2023/09/12 03:47:34;;;;;;;0.00;0.00;;;19.50;99.90;;;;;;5040803;28;20109;-78
2023/09/12 03:50:00;;;;;;;0.00;0.00;;;19.40;99.90;;;;;;5046206;28;20045;-82
2023/09/12 03:52:25;;;;;;;0.10;0.10;;;19.50;99.90;;;;;;5044100;28;20068;-78
2023/09/12 03:54:51;;;;;;;0.00;0.00;;;19.50;99.90;;;;;;5043899;28;20040;-82
2023/09/12 03:57:17;;;;;;;0.00;0.00;;;19.40;99.90;;;;;;5041525;28;20030;-77
2023/09/12 03:59:43;;;;;;;0.00;0.00;;;19.50;99.90;;;;;;5041089;28;20428;-77
2023/09/12 04:02:09;;;;;;;0.00;0.00;;;19.60;99.90;;;;;;5040586;28;20032;-77
2023/09/12 04:04:34;;;;;;;0.00;0.00;;;19.60;99.90;;;;;;5039195;28;20572;-78
2023/09/12 04:07:01;;;;;;;0.40;0.40;;;19.60;99.90;;;;;;5042844;28;20029;-77
2023/09/12 04:09:27;;;;;;;0.00;0.00;;;19.60;99.90;;;;;;5042290;28;20065;-78
2023/09/12 04:11:53;;;;;;;0.00;0.00;;;19.50;99.90;;;;;;5039000;28;20454;-77
2023/09/12 04:14:20;;;;;;;0.00;0.00;;;19.50;99.90;;;;;;5042586;28;20033;-78
2023/09/12 04:16:46;;;;;;;0.25;0.25;;;19.50;99.90;;;;;;5040675;28;20730;-78
2023/09/12 04:19:15;;;;;;;0.00;0.00;;;19.40;99.90;;;;;;5038867;28;20021;-75
2023/09/12 04:21:41;;;;;;;0.00;0.00;;;19.60;99.90;;;;;;5042275;28;20056;-80
2023/09/12 04:24:07;;;;;;;0.00;0.00;;;19.60;99.90;;;;;;5042571;28;20067;-78
2023/09/12 04:26:33;;;;;;;0.00;0.00;;;19.70;99.90;;;;;;5042253;28;20480;-78
2023/09/12 04:28:59;;;;;;;0.00;0.00;;;19.70;99.90;;;;;;5040272;28;20519;-77
2023/09/12 04:31:24;;;;;;;0.10;0.10;;;19.60;99.90;;;;;;5032086;28;20061;-76
2023/09/12 04:33:53;;;;;;;0.00;0.00;;;19.60;99.90;;;;;;5042249;28;20424;-77
2023/09/12 04:36:19;;;;;;;0.10;0.10;;;19.60;99.90;;;;;;5062726;28;20035;-79
2023/09/12 04:38:45;;;;;;;0.00;0.00;;;19.60;99.90;;;;;;5040245;28;20032;-77
2023/09/12 04:41:16;;;;;;;0.00;0.00;;;19.60;99.90;;;;;;5032357;28;20082;-77
2023/09/12 04:43:44;;;;;;;0.00;0.00;;;19.60;99.90;;;;;;5042301;28;20033;-78
2023/09/12 04:46:10;;;;;;;0.10;0.10;;;19.70;99.90;;;;;;5030854;28;20100;-76
2023/09/12 04:48:35;;;;;;;0.00;0.00;;;19.70;99.90;;;;;;5037009;28;20041;-76
2023/09/12 04:51:01;;;;;;;0.00;0.00;;;19.50;99.90;;;;;;5026015;28;20283;-76
2023/09/12 04:53:33;;;;;;;0.63;0.30;;;19.50;99.90;;;;;;5025075;28;20027;-77
2023/09/12 04:55:59;;;;;;;0.28;0.28;;;19.30;99.90;;;;;;5038006;28;20033;-76
2023/09/12 04:58:25;;;;;;;0.00;0.00;;;19.10;99.90;;;;;;5041826;28;20032;-77
2023/09/12 05:00:51;;;;;;;0.07;0.07;;;19.00;99.90;;;;;;5038913;28;20033;-75
2023/09/12 05:03:16;;;;;;;0.00;0.00;;;19.00;99.90;;;;;;5024165;28;20147;-78
2023/09/12 05:05:45;;;;;;;0.00;0.00;;;18.90;99.90;;;;;;5037903;28;20029;-76
2023/09/12 05:08:10;;;;;;;0.00;0.00;;;19.00;99.90;;;;;;5033585;28;20110;-75
2023/09/12 05:10:38;;;;;;;0.00;0.00;;;18.90;99.90;;;;;;5032367;28;20059;-77
2023/09/12 05:13:04;;;;;;;0.00;0.00;;;18.90;99.90;;;;;;5034424;28;20930;-78
2023/09/12 05:15:30;;;;;;;0.00;0.00;;;18.90;99.90;;;;;;5040262;28;20021;-77
2023/09/12 05:17:56;;;;;;;0.00;0.00;;;18.90;99.90;;;;;;5041993;28;20895;-77
2023/09/12 05:20:22;;;;;;;0.00;0.00;;;18.90;99.90;;;;;;5038172;28;20009;-80
2023/09/12 05:22:47;;;;;;;0.00;0.00;;;19.00;99.90;;;;;;5039524;28;20033;-76
2023/09/12 05:25:13;;;;;;;0.00;0.00;;;19.20;99.90;;;;;;5034176;28;20036;-75
2023/09/12 05:27:39;;;;;;;0.00;0.00;;;19.40;99.90;;;;;;5034112;28;20468;-76
2023/09/12 05:30:05;;;;;;;0.00;0.00;;;19.50;99.90;;;;;;5033282;28;20806;-77
2023/09/12 05:32:31;;;;;;;0.00;0.00;;;19.50;99.90;;;;;;5028637;28;20036;-76
2023/09/12 05:34:57;;;;;;;0.00;0.00;;;19.50;99.90;;;;;;5034319;28;20029;-78
2023/09/12 05:37:22;;;;;;;0.00;0.00;;;19.60;99.90;;;;;;5034596;28;20052;-75
2023/09/12 05:39:48;;;;;;;0.10;0.10;;;19.40;99.90;;;;;;5034851;28;20040;-77
2023/09/12 05:42:20;;;;;;;0.00;0.00;;;19.40;99.90;;;;;;5038360;28;20028;-78
2023/09/12 05:44:46;;;;;;;0.00;0.00;;;19.60;99.90;;;;;;5039772;28;20440;-78
2023/09/12 05:47:12;;;;;;;0.00;0.00;;;19.60;99.90;;;;;;5036201;28;20102;-77
2023/09/12 05:49:38;;;;;;;0.00;0.00;;;19.70;99.90;;;;;;5032868;28;20041;-75
2023/09/12 05:52:04;;;;;;;0.00;0.00;;;19.50;99.90;;;;;;5041626;28;20110;-76
2023/09/12 05:54:30;;;;;;;0.08;0.08;;;19.50;99.90;;;;;;5030309;28;20021;-75
2023/09/12 05:56:55;;;;;;;0.00;0.00;;;19.50;99.90;;;;;;5037525;28;20064;-78
2023/09/12 05:59:21;;;;;;;0.00;0.00;;;19.40;99.90;;;;;;5026092;28;20493;-81
2023/09/12 06:01:48;;;;;;;0.00;0.00;;;19.30;99.90;;;;;;5040664;28;20040;-78
2023/09/12 06:04:14;;;;;;;0.00;0.00;;;19.40;99.90;;;;;;5041766;28;20032;-77
2023/09/12 06:06:40;;;;;;;0.60;0.60;;;19.60;99.90;;;;;;5041603;28;20025;-76
2023/09/12 06:09:06;;;;;;;0.00;0.00;;;19.30;99.90;;;;;;5035564;28;20482;-79
2023/09/12 06:11:32;;;;;;;0.00;0.00;;;19.50;99.90;;;;;;5030027;28;20990;-77
2023/09/12 06:13:57;;;;;;;2.47;1.07;;;19.70;99.90;;;;;;5035010;28;20025;-80
2023/09/12 06:16:24;;;;;;;0.00;0.00;;;19.60;99.90;;;;;;5049485;28;20116;-75
2023/09/12 06:18:49;;;;;;;0.00;0.00;;;19.70;99.90;;;;;;5039658;28;20060;-75
2023/09/12 06:21:15;;;;;;;0.00;0.00;;;19.80;99.90;;;;;;5041764;28;20099;-77
2023/09/12 06:23:41;;;;;;;0.00;0.00;;;19.90;99.90;;;;;;5032039;28;20025;-75
2023/09/12 06:26:06;;;;;;;0.00;0.00;;;19.90;99.90;;;;;;5040398;28;20400;-79
2023/09/12 06:28:32;;;;;;;0.10;0.10;;;19.90;99.90;;;;;;5041365;28;20022;-79
2023/09/12 06:30:58;;;;;;;0.00;0.00;;;20.00;99.90;;;;;;5027501;28;20025;-80
2023/09/12 06:33:26;;;;;;;0.20;0.20;;;19.90;99.90;;;;;;5041281;28;20021;-81
2023/09/12 06:35:52;;;;;;;0.00;0.00;;;19.90;99.90;;;;;;5036821;28;20052;-79
2023/09/12 06:38:19;;;;;;;0.00;0.00;;;20.10;99.90;;;;;;5044160;28;20030;-77
2023/09/12 06:40:46;;;;;;;;;;;20.30;99.90;;;;;;5035492;28;20017;-82
2023/09/12 06:43:12;;;;;;;0.00;0.00;;;20.50;99.90;;;;;;5042767;28;19909;-78
2023/09/12 06:45:38;;;;;;;0.00;0.00;;;20.60;99.90;;;;;;5032195;28;20025;-80
2023/09/12 06:48:04;;;;;;;0.25;0.25;;;20.60;99.90;;;;;;5036124;28;20021;-76
2023/09/12 06:50:30;;;;;;;0.00;0.00;;;20.70;99.90;;;;;;5044390;28;20079;-77
2023/09/12 06:52:56;;;;;;;0.00;0.00;;;20.70;99.90;;;;;;5036670;28;20128;-80
2023/09/12 06:55:21;;;;;;;0.07;0.07;;;20.70;99.90;;;;;;5058147;28;20086;-79
2023/09/12 06:57:47;;;;;;;0.57;0.40;;;20.80;99.90;;;;;;5045345;28;20025;-76
2023/09/12 07:00:13;;;;;;;0.00;0.00;;;20.80;99.90;;;;;;5037153;28;20034;-80
2023/09/12 07:02:39;;;;;;;0.00;0.00;;;20.50;99.90;;;;;;5052517;28;20482;-75
2023/09/12 07:05:05;;;;;;;0.10;0.10;;;20.60;99.90;;;;;;5043902;28;20029;-78
2023/09/12 07:07:32;;;;;;;0.00;0.00;;;20.70;99.90;;;;;;5036433;28;20374;-76
2023/09/12 07:09:59;;;;;;;0.00;0.00;;;20.80;99.90;;;;;;5032941;28;20065;-76
2023/09/12 07:12:26;;;;;;;0.00;0.00;;;21.20;99.90;;;;;;5044856;28;20032;-78
2023/09/12 07:14:51;;;;;;;0.00;0.00;;;21.10;99.90;;;;;;5039742;28;20017;-79
2023/09/12 07:17:17;;;;;;;0.00;0.00;;;21.00;99.90;;;;;;5044235;28;20040;-81
2023/09/12 07:19:43;;;;;;;0.00;0.00;;;21.00;99.90;;;;;;5037346;28;20063;-79
2023/09/12 07:22:09;;;;;;;0.00;0.00;;;21.10;99.90;;;;;;5040591;28;20495;-77
2023/09/12 07:24:35;;;;;;;0.00;0.00;;;21.20;99.90;;;;;;5043733;28;20021;-77
2023/09/12 07:27:00;;;;;;;0.27;0.27;;;21.20;99.90;;;;;;5043410;28;20571;-77
2023/09/12 07:29:27;;;;;;;0.00;0.00;;;21.20;99.90;;;;;;5043723;28;20130;-78
2023/09/12 07:31:56;;;;;;;0.00;0.00;;;21.30;99.90;;;;;;5040721;28;20017;-76
2023/09/12 07:34:22;;;;;;;0.00;0.00;;;21.40;99.90;;;;;;5043678;28;20137;-78
2023/09/12 07:36:48;;;;;;;0.00;0.00;;;21.30;99.90;;;;;;5041112;28;20024;-82
2023/09/12 07:39:14;;;;;;;0.00;0.00;;;21.50;99.90;;;;;;5040802;28;20070;-78
2023/09/12 07:41:40;;;;;;;0.00;0.00;;;21.90;99.90;;;;;;5042536;28;20396;-82
2023/09/12 07:44:07;;;;;;;0.00;0.00;;;22.00;99.90;;;;;;5038672;28;20030;-79
2023/09/12 07:46:33;;;;;;;0.00;0.00;;;22.30;99.90;;;;;;5044404;28;20510;-80
2023/09/12 07:48:59;;;;;;;0.00;0.00;;;22.60;99.90;;;;;;5043815;28;20033;-78
2023/09/12 07:51:25;;;;;;;0.00;0.00;;;22.40;99.90;;;;;;5043703;28;20029;-77
2023/09/12 07:53:50;;;;;;;0.00;0.00;;;22.50;99.90;;;;;;5040780;28;20483;-76
2023/09/12 07:56:16;;;;;;;0.00;0.00;;;23.00;99.90;;;;;;5043579;28;20064;-77
2023/09/12 07:58:42;;;;;;;0.00;0.00;;;22.90;99.90;;;;;;5043746;28;20021;-75
2023/09/12 08:01:09;;;;;;;0.00;0.00;;;22.70;99.90;;;;;;5039967;28;20029;-81
2023/09/12 08:03:36;;;;;;;0.00;0.00;;;22.90;99.90;;;;;;5038766;28;20029;-80
2023/09/12 08:06:02;;;;;;;0.10;0.10;;;23.40;99.90;;;;;;5040284;28;20025;-79
2023/09/12 08:08:29;;;;;;;;;;;24.10;99.90;;;;;;5041899;28;20347;-81
2023/09/12 08:10:54;;;;;;;;;;;24.80;99.90;;;;;;5041565;28;19920;-77
2023/09/12 08:13:20;;;;;;;0.00;0.00;;;24.40;99.90;;;;;;5040313;28;19920;-77
2023/09/12 08:15:46;;;;;;;0.00;0.00;;;24.40;99.90;;;;;;5043120;28;20036;-78
2023/09/12 08:18:12;;;;;;;0.00;0.00;;;24.70;99.90;;;;;;5043709;28;20024;-76
2023/09/12 08:20:38;;;;;;;0.00;0.00;;;24.80;99.90;;;;;;5038318;28;20059;-79
2023/09/12 08:23:04;;;;;;;0.00;0.00;;;24.80;99.90;;;;;;5041696;28;20100;-79
2023/09/12 08:25:29;;;;;;;0.10;0.10;;;25.10;99.40;;;;;;5041464;28;20167;-76
2023/09/12 08:27:55;;;;;;;0.00;0.00;;;25.10;99.90;;;;;;5042392;28;20263;-79
2023/09/12 08:30:21;;;;;;;0.00;0.00;;;25.70;97.60;;;;;;5040361;28;20622;-80
2023/09/12 08:32:47;;;;;;;;;;;25.30;97.60;;;;;;5037929;28;20052;-80
2023/09/12 08:35:13;;;;;;;;;;;24.70;98.50;;;;;;5040949;28;20435;-77
2023/09/12 08:37:40;;;;;;;0.00;0.00;;;25.00;98.10;;;;;;5043169;28;19917;-77
2023/09/12 08:40:10;;;;;;;0.00;0.00;;;26.20;95.50;;;;;;5040253;28;20021;-76
2023/09/12 08:42:46;;;;;;;0.00;0.00;;;26.20;94.10;;;;;;5042138;28;20083;-79
2023/09/12 08:45:17;;;;;;;0.00;0.00;;;25.50;95.20;;;;;;5040075;28;20407;-79
2023/09/12 08:47:44;;;;;;;0.00;0.00;;;25.20;95.50;;;;;;5042323;28;20399;-78
2023/09/12 08:50:15;;;;;;;0.00;0.00;;;25.10;96.10;;;;;;5041413;28;20041;-76
2023/09/12 08:52:42;;;;;;;0.00;0.00;;;25.10;96.10;;;;;;5043509;28;20055;-78
2023/09/12 08:55:09;;;;;;;0.00;0.00;;;24.70;96.30;;;;;;5042872;28;20025;-78
2023/09/12 08:57:48;;;;;;;0.00;0.00;;;24.70;96.40;;;;;;5043103;28;20032;-76
2023/09/12 09:00:14;;;;;;;0.00;0.00;;;25.10;95.70;;;;;;5036545;28;20112;-78
2023/09/12 09:02:41;;;;;;;;;;;26.10;93.50;;;;;;5033131;28;20025;-77
2023/09/12 09:05:09;;;;;;;0.00;0.00;;;27.10;92.50;;;;;;5040999;28;19958;-78
2023/09/12 09:07:37;;;;;;;0.00;0.00;;;27.90;91.00;;;;;;5039219;28;20045;-75
2023/09/12 09:10:07;;;;;;;0.00;0.00;;;26.90;90.40;;;;;;5042271;28;20122;-79
2023/09/12 09:12:39;;;;;;;0.00;0.00;;;28.30;90.90;;;;;;5040436;28;20128;-79
2023/09/12 09:15:26;;;;;;;0.00;0.00;;;29.70;84.90;;;;;;5040998;28;20033;-78
2023/09/12 09:17:53;;;;;;;0.00;0.00;;;28.00;86.50;;;;;;5040237;28;20032;-77
2023/09/12 09:20:37;;;;;;;0.00;0.00;;;29.00;87.30;;;;;;5039498;28;20048;-80
2023/09/12 09:23:09;;;;;;;0.00;0.00;;;30.90;77.20;;;;;;5036275;28;20508;-79
2023/09/12 09:25:38;;;;;;;0.00;0.00;;;31.60;74.30;;;;;;5042172;28;20028;-79
2023/09/12 09:28:05;;;;;;;0.00;0.00;;;31.30;74.70;;;;;;5037719;28;20033;-79
2023/09/12 09:30:45;;;;;;;0.00;0.00;;;32.20;70.30;;;;;;5039946;28;20037;-77
2023/09/12 09:33:12;;;;;;;0.00;0.00;;;31.10;69.60;;;;;;5041331;28;20506;-75
2023/09/12 09:35:40;;;;;;;0.00;0.00;;;32.00;70.60;;;;;;5040155;28;20048;-76
2023/09/12 09:38:08;;;;;;;0.00;0.00;;;29.80;70.90;;;;;;5042945;28;20028;-85
2023/09/12 09:40:35;;;;;;;0.00;0.00;;;29.80;71.70;;;;;;5040526;28;20543;-78
2023/09/12 09:43:02;;;;;;;0.00;0.00;;;30.60;74.60;;;;;;5043503;28;20538;-74
2023/09/12 09:45:29;;;;;;;0.00;0.00;;;28.80;74.90;;;;;;5040166;28;20017;-76
2023/09/12 09:48:22;;;;;;;0.00;0.00;;;29.20;80.10;;;;;;5046387;28;20108;-78
2023/09/12 09:50:48;;;;;;;0.00;0.00;;;29.60;74.20;;;;;;5038832;28;20033;-78
2023/09/12 09:53:14;;;;;;;0.00;0.00;;;31.30;71.60;;;;;;5044820;28;20759;-77
2023/09/12 09:55:42;;;;;;;0.00;0.00;;;29.10;73.00;;;;;;5042950;28;20055;-78
2023/09/12 09:58:08;;;;;;;0.00;0.00;;;27.40;79.30;;;;;;5044202;28;20029;-79
2023/09/12 10:00:36;;;;;;;0.03;0.03;;;26.90;82.60;;;;;;5043117;28;20030;-77
2023/09/12 10:03:05;;;;;;;0.00;0.00;;;26.40;82.40;;;;;;5045728;28;20068;-79
2023/09/12 10:05:32;;;;;;;0.00;0.00;;;26.70;83.40;;;;;;5042346;28;20435;-77
2023/09/12 10:08:01;;;;;;;7.13;0.75;;;26.80;83.70;;;;;;5045399;28;20052;-76
2023/09/12 10:10:29;;;;;;;0.00;0.00;;;26.80;83.90;;;;;;5042797;28;20033;-77
2023/09/12 10:12:59;;;;;;;0.00;0.00;;;27.30;85.40;;;;;;5045135;28;20238;-79
2023/09/12 10:15:30;;;;;;;0.08;0.08;;;27.50;83.50;;;;;;5043334;28;20025;-81
2023/09/12 10:17:58;;;;;;;0.00;0.00;;;27.20;84.90;;;;;;5037358;28;20626;-78
2023/09/12 10:20:44;;;;;;;0.00;0.00;;;27.60;80.40;;;;;;5043149;28;20019;-74
2023/09/12 10:23:17;;;;;;;;;;;27.70;81.50;;;;;;5044013;28;20029;-75
2023/09/12 10:25:43;;;;;;;0.00;0.00;;;27.40;81.40;;;;;;5044913;28;19908;-78
2023/09/12 10:28:10;;;;;;;0.03;0.03;;;27.50;80.60;;;;;;5045314;28;20033;-78
2023/09/12 10:30:36;;;;;;;0.00;0.00;;;27.70;79.80;;;;;;5043450;28;20037;-83
2023/09/12 10:33:04;;;;;;;0.00;0.00;;;26.90;83.20;;;;;;5041364;28;20036;-78
2023/09/12 10:35:31;;;;;;;0.00;0.00;;;26.70;83.90;;;;;;5045651;28;20117;-77
2023/09/12 10:38:01;;;;;;;0.00;0.00;;;26.70;85.00;;;;;;5043725;28;20025;-77
2023/09/12 10:40:28;;;;;;;0.00;0.00;;;26.40;85.50;;;;;;5045962;28;20017;-83
2023/09/12 10:42:56;;;;;;;0.00;0.00;;;26.10;87.90;;;;;;5043133;28;20029;-75
2023/09/12 10:45:22;;;;;;;0.00;0.00;;;26.30;86.50;;;;;;5043031;28;20132;-76
2023/09/12 10:47:48;;;;;;;0.20;0.20;;;26.60;87.60;;;;;;5042900;28;20028;-79
2023/09/12 10:50:14;;;;;;;0.00;0.00;;;27.20;85.60;;;;;;5043403;28;20155;-79
2023/09/12 10:52:41;;;;;;;0.00;0.00;;;27.00;83.80;;;;;;5042897;28;20188;-74
2023/09/12 10:55:07;;;;;;;0.00;0.00;;;27.00;85.30;;;;;;5042253;28;20439;-80
2023/09/12 10:57:33;;;;;;;0.00;0.00;;;28.00;84.10;;;;;;5039859;28;20056;-79
2023/09/12 10:59:59;;;;;;;0.00;0.00;;;28.40;82.50;;;;;;5044629;28;20025;-78
2023/09/12 11:02:31;;;;;;;0.00;0.00;;;28.90;80.10;;;;;;5045430;28;20439;-77
2023/09/12 11:04:59;;;;;;;0.00;0.00;;;28.50;79.40;;;;;;5042602;28;20096;-76
2023/09/12 11:07:38;;;;;;;0.00;0.00;;;28.60;78.90;;;;;;5035800;28;20132;-79
2023/09/12 11:10:16;;;;;;;0.00;0.00;;;28.20;79.80;;;;;;5035943;28;20045;-80
2023/09/12 11:12:43;;;;;;;0.00;0.00;;;27.50;80.30;;;;;;5043583;28;20032;-76
2023/09/12 11:15:10;;;;;;;0.00;0.00;;;27.20;81.30;;;;;;5042937;28;20042;-77
2023/09/12 11:17:40;;;;;;;0.00;0.00;;;26.70;82.60;;;;;;5041266;28;20124;-74
2023/09/12 11:20:13;;;;;;;0.00;0.00;;;26.60;82.10;;;;;;5039045;28;20024;-76
2023/09/12 11:22:46;;;;;;;0.00;0.00;;;26.00;83.00;;;;;;5039129;28;20021;-81
2023/09/12 11:25:22;;;;;;;0.00;0.00;;;25.60;84.90;;;;;;5033379;28;20024;-80
2023/09/12 11:27:51;;;;;;;0.10;0.10;;;26.00;84.40;;;;;;5045647;28;20106;-77
2023/09/12 11:30:18;;;;;;;0.00;0.00;;;26.40;82.60;;;;;;5044112;28;20032;-77
2023/09/12 11:32:50;;;;;;;0.00;0.00;;;27.10;81.60;;;;;;5044485;28;20063;-79
2023/09/12 11:35:16;;;;;;;0.47;0.47;;;27.30;79.70;;;;;;5043943;28;20075;-79
2023/09/12 11:37:49;;;;;;;0.00;0.00;;;27.20;79.20;;;;;;5041485;28;20025;-79
2023/09/12 11:40:18;;;;;;;0.00;0.00;;;27.10;80.40;;;;;;5041244;28;20025;-80
2023/09/12 11:42:46;;;;;;;0.00;0.00;;;27.90;79.60;;;;;;5038589;28;20030;-77
2023/09/12 11:45:12;;;;;;;0.00;0.00;;;27.80;78.50;;;;;;5039614;28;20099;-79
2023/09/12 11:47:42;;;;;;;0.00;0.00;;;27.70;79.40;;;;;;5043736;28;20438;-78
2023/09/12 11:50:09;;;;;;;0.00;0.00;;;27.60;79.70;;;;;;5046610;28;20033;-80
2023/09/12 11:52:38;;;;;;;0.00;0.00;;;27.70;78.20;;;;;;5041395;28;20103;-76
2023/09/12 11:55:04;;;;;;;0.00;0.00;;;27.70;77.50;;;;;;5041799;28;20165;-76
2023/09/12 11:57:30;;;;;;;0.00;0.00;;;27.50;78.60;;;;;;5039097;28;20188;-78
2023/09/12 11:59:56;;;;;;;0.00;0.00;;;27.70;78.20;;;;;;5038516;28;20059;-77
2023/09/12 12:02:23;;;;;;;0.00;0.00;;;27.50;79.40;;;;;;5043721;28;20120;-81
2023/09/12 12:04:50;;;;;;;0.00;0.00;;;27.30;78.00;;;;;;5041287;28;20036;-77
2023/09/12 12:07:16;;;;;;;0.00;0.00;;;27.20;76.80;;;;;;5041363;28;20400;-76
2023/09/12 12:09:42;;;;;;;0.00;0.00;;;27.00;77.60;;;;;;5042860;28;20044;-78
2023/09/12 12:12:12;;;;;;;0.00;0.00;;;26.40;80.30;;;;;;5040781;28;20043;-78
2023/09/12 12:14:39;;;;;;;0.00;0.00;;;26.50;81.90;;;;;;5043507;28;20052;-77
2023/09/12 12:17:12;;;;;;;0.00;0.00;;;26.40;80.40;;;;;;5037850;28;20577;-76
2023/09/12 12:19:38;;;;;;;0.00;0.00;;;26.50;82.10;;;;;;5029603;28;20075;-80
2023/09/12 12:22:09;;;;;;;0.00;0.00;;;26.50;81.40;;;;;;5043553;28;20095;-78
2023/09/12 12:24:44;;;;;;;0.30;0.30;;;26.50;82.00;;;;;;5039876;28;20999;-76
2023/09/12 12:27:11;;;;;;;0.00;0.00;;;26.40;79.80;;;;;;5043843;28;20021;-76
2023/09/12 12:29:39;;;;;;;0.00;0.00;;;26.50;80.30;;;;;;5038707;28;20644;-81
2023/09/12 12:32:05;;;;;;;0.00;0.00;;;26.30;79.90;;;;;;5041600;28;20028;-77
2023/09/12 12:34:31;;;;;;;0.00;0.00;;;26.30;79.60;;;;;;5039252;28;20412;-76
2023/09/12 12:36:57;;;;;;;0.00;0.00;;;26.10;80.00;;;;;;5042518;28;20155;-82
2023/09/12 12:39:23;;;;;;;0.00;0.00;;;26.20;80.00;;;;;;5041350;28;20021;-77
2023/09/12 12:41:54;;;;;;;0.00;0.00;;;26.30;80.20;;;;;;5042414;28;20028;-79
2023/09/12 12:44:21;;;;;;;0.00;0.00;;;26.20;79.80;;;;;;5040676;28;20063;-80
2023/09/12 12:46:53;;;;;;;;;;;26.30;79.80;;;;;;5043356;28;20032;-83
2023/09/12 12:49:19;;;;;;;0.00;0.00;;;26.30;78.10;;;;;;5042099;28;19912;-78
2023/09/12 12:51:46;;;;;;;0.00;0.00;;;26.50;78.60;;;;;;5040797;28;20037;-79